UAL697 KDCA-KIAH
Flight info
| Callsign | UAL697 |
|---|---|
| Flight time | 3h 13m |
| Altitude | 32000 |
| Route | CLTCH3 MAULS Q40 AEX GESNR2 |
| Aircraft | A320/M-SDE3FGHIRWY/LB1 |
Departure
| Time | 2026-05-07 16:32 |
|---|---|
| Airport | Ronald Reagan Washington National Airport (KDCA) |
Arrival
| Time | 2026-05-07 19:46 |
|---|---|
| Airport | George Bush Intercontinental Airport (KIAH) |
| Time | Latitude | Longitude | Altitude | Speed | Heading |
|---|---|---|---|---|---|
| 2026-05-07 15:48 | 38.85058 | -77.04088 | 21 ft | 0 kts | 245° |
| 2026-05-07 16:23 | 38.85059 | -77.04085 | 21 ft | 3 kts | 244° |
| 2026-05-07 16:23 | 38.85070 | -77.04054 | 20 ft | 4 kts | 244° |
| 2026-05-07 16:23 | 38.85081 | -77.04023 | 22 ft | 4 kts | 248° |
| 2026-05-07 16:24 | 38.85093 | -77.03992 | 21 ft | 4 kts | 230° |
| 2026-05-07 16:24 | 38.85113 | -77.03974 | 24 ft | 4 kts | 184° |
| 2026-05-07 16:24 | 38.85123 | -77.03974 | 23 ft | 1 kts | 175° |
| 2026-05-07 16:24 | 38.85124 | -77.03974 | 23 ft | 0 kts | 175° |
| 2026-05-07 16:27 | 38.85123 | -77.03974 | 23 ft | 1 kts | 175° |
| 2026-05-07 16:27 | 38.85096 | -77.03971 | 24 ft | 9 kts | 175° |
| 2026-05-07 16:27 | 38.85008 | -77.03961 | 21 ft | 15 kts | 175° |
| 2026-05-07 16:28 | 38.84902 | -77.03950 | 21 ft | 16 kts | 175° |
| 2026-05-07 16:28 | 38.84792 | -77.03937 | 23 ft | 16 kts | 175° |
| 2026-05-07 16:28 | 38.84695 | -77.03940 | 24 ft | 14 kts | 185° |
| 2026-05-07 16:28 | 38.84617 | -77.03996 | 29 ft | 13 kts | 232° |
| 2026-05-07 16:29 | 38.84592 | -77.04023 | 27 ft | 2 kts | 192° |
| 2026-05-07 16:29 | 38.84586 | -77.04023 | 26 ft | 0 kts | 170° |
| 2026-05-07 16:29 | 38.84570 | -77.04020 | 27 ft | 4 kts | 173° |
| 2026-05-07 16:29 | 38.84542 | -77.04017 | 27 ft | 4 kts | 175° |
| 2026-05-07 16:30 | 38.84508 | -77.04014 | 28 ft | 7 kts | 176° |
| 2026-05-07 16:30 | 38.84439 | -77.03999 | 28 ft | 13 kts | 169° |
| 2026-05-07 16:30 | 38.84340 | -77.03948 | 28 ft | 17 kts | 136° |
| 2026-05-07 16:30 | 38.84239 | -77.03861 | 28 ft | 19 kts | 156° |
| 2026-05-07 16:31 | 38.84181 | -77.03762 | 24 ft | 7 kts | 115° |
| 2026-05-07 16:31 | 38.84165 | -77.03703 | 24 ft | 7 kts | 92° |
| 2026-05-07 16:31 | 38.84208 | -77.03686 | 24 ft | 9 kts | 0° |
| 2026-05-07 16:31 | 38.84435 | -77.03705 | 23 ft | 64 kts | 356° |
| 2026-05-07 16:32 | 38.85073 | -77.03770 | 25 ft | 117 kts | 355° |
| 2026-05-07 16:32 | 38.86010 | -77.03870 | 98 ft | 146 kts | 355° |
| 2026-05-07 16:32 | 38.87004 | -77.04023 | 546 ft | 144 kts | 339° |
| 2026-05-07 16:32 | 38.87850 | -77.04707 | 965 ft | 145 kts | 322° |
| 2026-05-07 16:33 | 38.88622 | -77.05557 | 1417 ft | 147 kts | 321° |
| 2026-05-07 16:33 | 38.89395 | -77.06390 | 1801 ft | 151 kts | 323° |
| 2026-05-07 16:33 | 38.90170 | -77.07441 | 1952 ft | 174 kts | 306° |
| 2026-05-07 16:33 | 38.90789 | -77.08885 | 2077 ft | 194 kts | 301° |
| 2026-05-07 16:34 | 38.91519 | -77.10436 | 2197 ft | 214 kts | 314° |
| 2026-05-07 16:34 | 38.92737 | -77.11661 | 2454 ft | 234 kts | 330° |
| 2026-05-07 16:34 | 38.94192 | -77.12769 | 2984 ft | 248 kts | 330° |
| 2026-05-07 16:34 | 38.95667 | -77.13950 | 3806 ft | 251 kts | 321° |
| 2026-05-07 16:35 | 38.96739 | -77.15695 | 4696 ft | 251 kts | 294° |
| 2026-05-07 16:35 | 38.97180 | -77.17843 | 5616 ft | 249 kts | 282° |
| 2026-05-07 16:35 | 38.97506 | -77.20029 | 6461 ft | 249 kts | 280° |
| 2026-05-07 16:35 | 38.97828 | -77.22222 | 7234 ft | 250 kts | 279° |
| 2026-05-07 16:36 | 38.98094 | -77.24437 | 7977 ft | 251 kts | 270° |
| 2026-05-07 16:36 | 38.97866 | -77.26655 | 8711 ft | 251 kts | 252° |
| 2026-05-07 16:36 | 38.97072 | -77.28657 | 9480 ft | 254 kts | 234° |
| 2026-05-07 16:36 | 38.95782 | -77.30227 | 10198 ft | 259 kts | 220° |
| 2026-05-07 16:37 | 38.94257 | -77.31617 | 10378 ft | 280 kts | 220° |
| 2026-05-07 16:37 | 38.92608 | -77.33120 | 10508 ft | 300 kts | 219° |
| 2026-05-07 16:37 | 38.90847 | -77.34722 | 10632 ft | 320 kts | 219° |
| 2026-05-07 16:37 | 38.88989 | -77.36408 | 10937 ft | 331 kts | 219° |
| 2026-05-07 16:38 | 38.87120 | -77.38099 | 11488 ft | 335 kts | 219° |
| 2026-05-07 16:38 | 38.85206 | -77.39823 | 12114 ft | 337 kts | 219° |
| 2026-05-07 16:38 | 38.83284 | -77.41554 | 12757 ft | 338 kts | 220° |
| 2026-05-07 16:38 | 38.81357 | -77.43294 | 13366 ft | 340 kts | 220° |
| 2026-05-07 16:39 | 38.79417 | -77.45045 | 13948 ft | 342 kts | 220° |
| 2026-05-07 16:39 | 38.77469 | -77.46802 | 14486 ft | 343 kts | 220° |
| 2026-05-07 16:39 | 38.75533 | -77.48546 | 15080 ft | 342 kts | 220° |
| 2026-05-07 16:39 | 38.73611 | -77.50334 | 15692 ft | 339 kts | 225° |
| 2026-05-07 16:40 | 38.71949 | -77.52444 | 16298 ft | 335 kts | 232° |
| 2026-05-07 16:40 | 38.70387 | -77.54647 | 16924 ft | 334 kts | 232° |
| 2026-05-07 16:40 | 38.68820 | -77.56849 | 17562 ft | 334 kts | 232° |
| 2026-05-07 16:40 | 38.67259 | -77.59043 | 18154 ft | 333 kts | 231° |
| 2026-05-07 16:41 | 38.65784 | -77.61115 | 18703 ft | 332 kts | 232° |
| 2026-05-07 16:41 | 38.64227 | -77.63298 | 19213 ft | 333 kts | 232° |
| 2026-05-07 16:41 | 38.62663 | -77.65486 | 19685 ft | 334 kts | 232° |
| 2026-05-07 16:41 | 38.61093 | -77.67684 | 20161 ft | 336 kts | 232° |
| 2026-05-07 16:42 | 38.59518 | -77.69886 | 20634 ft | 336 kts | 232° |
| 2026-05-07 16:42 | 38.58022 | -77.71974 | 21054 ft | 337 kts | 232° |
| 2026-05-07 16:42 | 38.56434 | -77.74190 | 21470 ft | 338 kts | 232° |
| 2026-05-07 16:42 | 38.54841 | -77.76415 | 21871 ft | 340 kts | 232° |
| 2026-05-07 16:43 | 38.53244 | -77.78644 | 22234 ft | 341 kts | 232° |
| 2026-05-07 16:43 | 38.51641 | -77.80880 | 22629 ft | 342 kts | 232° |
| 2026-05-07 16:43 | 38.50036 | -77.83130 | 23027 ft | 343 kts | 232° |
| 2026-05-07 16:43 | 38.48460 | -77.85347 | 23324 ft | 345 kts | 232° |
| 2026-05-07 16:44 | 38.46844 | -77.87627 | 23612 ft | 347 kts | 232° |
| 2026-05-07 16:44 | 38.45219 | -77.89919 | 23880 ft | 348 kts | 233° |
| 2026-05-07 16:44 | 38.43757 | -77.92369 | 24164 ft | 347 kts | 238° |
| 2026-05-07 16:44 | 38.42368 | -77.94884 | 24454 ft | 348 kts | 238° |
| 2026-05-07 16:45 | 38.40976 | -77.97405 | 24786 ft | 348 kts | 238° |
| 2026-05-07 16:45 | 38.39586 | -77.99918 | 25191 ft | 345 kts | 238° |
| 2026-05-07 16:45 | 38.38208 | -78.02405 | 25657 ft | 341 kts | 238° |
| 2026-05-07 16:45 | 38.36843 | -78.04862 | 26119 ft | 338 kts | 238° |
| 2026-05-07 16:46 | 38.35488 | -78.07299 | 26576 ft | 335 kts | 238° |
| 2026-05-07 16:46 | 38.34145 | -78.09709 | 27038 ft | 333 kts | 239° |
| 2026-05-07 16:46 | 38.32810 | -78.12104 | 27504 ft | 330 kts | 239° |
| 2026-05-07 16:46 | 38.31486 | -78.14480 | 27974 ft | 327 kts | 239° |
| 2026-05-07 16:47 | 38.30181 | -78.16830 | 28463 ft | 324 kts | 239° |
| 2026-05-07 16:47 | 38.28899 | -78.19137 | 28854 ft | 321 kts | 239° |
| 2026-05-07 16:47 | 38.27610 | -78.21453 | 29271 ft | 320 kts | 240° |
| 2026-05-07 16:47 | 38.26325 | -78.23756 | 29715 ft | 318 kts | 240° |
| 2026-05-07 16:48 | 38.25046 | -78.26044 | 30169 ft | 316 kts | 240° |
| 2026-05-07 16:48 | 38.23777 | -78.28309 | 30543 ft | 314 kts | 240° |
| 2026-05-07 16:48 | 38.22510 | -78.30573 | 30895 ft | 313 kts | 240° |
| 2026-05-07 16:48 | 38.21254 | -78.32817 | 31232 ft | 311 kts | 240° |
| 2026-05-07 16:49 | 38.19997 | -78.35059 | 31579 ft | 310 kts | 240° |
| 2026-05-07 16:49 | 38.18743 | -78.37293 | 31897 ft | 310 kts | 240° |
| 2026-05-07 16:49 | 38.17577 | -78.39591 | 31961 ft | 310 kts | 246° |
| 2026-05-07 16:50 | 38.15915 | -78.44753 | 31974 ft | 322 kts | 250° |
| 2026-05-07 16:50 | 38.14257 | -78.50090 | 31974 ft | 326 kts | 250° |
| 2026-05-07 16:51 | 38.12595 | -78.55423 | 31970 ft | 327 kts | 250° |
| 2026-05-07 16:51 | 38.10916 | -78.60793 | 31973 ft | 327 kts | 250° |
| 2026-05-07 16:52 | 38.09230 | -78.66173 | 31935 ft | 329 kts | 250° |
| 2026-05-07 16:52 | 38.07542 | -78.71568 | 31984 ft | 329 kts | 250° |
| 2026-05-07 16:53 | 38.05850 | -78.76956 | 31990 ft | 328 kts | 250° |
| 2026-05-07 16:53 | 38.04156 | -78.82336 | 31988 ft | 328 kts | 249° |
| 2026-05-07 16:54 | 38.02465 | -78.87695 | 31984 ft | 327 kts | 249° |
| 2026-05-07 16:54 | 38.00779 | -78.93016 | 31981 ft | 327 kts | 249° |
| 2026-05-07 16:55 | 37.99087 | -78.98368 | 31979 ft | 327 kts | 249° |
| 2026-05-07 16:55 | 37.97400 | -79.03708 | 31969 ft | 326 kts | 249° |
| 2026-05-07 16:56 | 37.95708 | -79.09046 | 32006 ft | 325 kts | 250° |
| 2026-05-07 16:56 | 37.93173 | -79.16991 | 32033 ft | 324 kts | 249° |
| 2026-05-07 16:57 | 37.91476 | -79.22281 | 32058 ft | 324 kts | 249° |
| 2026-05-07 16:57 | 37.89786 | -79.27561 | 32080 ft | 324 kts | 249° |
| 2026-05-07 16:58 | 37.88066 | -79.32837 | 32108 ft | 325 kts | 246° |
| 2026-05-07 16:58 | 37.85671 | -79.37713 | 32120 ft | 327 kts | 242° |
| 2026-05-07 16:59 | 37.83234 | -79.42527 | 32110 ft | 327 kts | 242° |
| 2026-05-07 16:59 | 37.80787 | -79.47365 | 32142 ft | 326 kts | 242° |
| 2026-05-07 17:00 | 37.78344 | -79.52195 | 32130 ft | 326 kts | 242° |
| 2026-05-07 17:00 | 37.75899 | -79.57015 | 32109 ft | 325 kts | 242° |
| 2026-05-07 17:01 | 37.73451 | -79.61822 | 32082 ft | 325 kts | 242° |
| 2026-05-07 17:01 | 37.71407 | -79.65836 | 32039 ft | 329 kts | 242° |
| 2026-05-07 17:02 | 37.68930 | -79.70702 | 31940 ft | 329 kts | 242° |
| 2026-05-07 17:02 | 37.66442 | -79.75560 | 31954 ft | 329 kts | 242° |
| 2026-05-07 17:03 | 37.63955 | -79.80411 | 31989 ft | 329 kts | 242° |
| 2026-05-07 17:03 | 37.61469 | -79.85260 | 31987 ft | 329 kts | 242° |
| 2026-05-07 17:04 | 37.58982 | -79.90105 | 31994 ft | 328 kts | 242° |
| 2026-05-07 17:04 | 37.56522 | -79.94898 | 31990 ft | 327 kts | 242° |
| 2026-05-07 17:05 | 37.54038 | -79.99725 | 31988 ft | 328 kts | 242° |
| 2026-05-07 17:05 | 37.51554 | -80.04548 | 31934 ft | 329 kts | 242° |
| 2026-05-07 17:06 | 37.49057 | -80.09395 | 31944 ft | 330 kts | 242° |
| 2026-05-07 17:06 | 37.46552 | -80.14250 | 31949 ft | 331 kts | 242° |
| 2026-05-07 17:07 | 37.44041 | -80.19099 | 31970 ft | 331 kts | 242° |
| 2026-05-07 17:07 | 37.41527 | -80.23944 | 31973 ft | 330 kts | 242° |
| 2026-05-07 17:08 | 37.39012 | -80.28783 | 31979 ft | 330 kts | 242° |
| 2026-05-07 17:08 | 37.36500 | -80.33627 | 31984 ft | 331 kts | 242° |
| 2026-05-07 17:09 | 37.33999 | -80.38437 | 31986 ft | 331 kts | 242° |
| 2026-05-07 17:09 | 37.31475 | -80.43265 | 31930 ft | 331 kts | 242° |
| 2026-05-07 17:10 | 37.28940 | -80.48115 | 31948 ft | 332 kts | 242° |
| 2026-05-07 17:10 | 37.26429 | -80.52980 | 31973 ft | 332 kts | 243° |
| 2026-05-07 17:11 | 37.24051 | -80.57945 | 31998 ft | 332 kts | 243° |
| 2026-05-07 17:11 | 37.21704 | -80.62926 | 31980 ft | 331 kts | 243° |
| 2026-05-07 17:12 | 37.19337 | -80.67882 | 31983 ft | 331 kts | 243° |
| 2026-05-07 17:12 | 37.16954 | -80.72832 | 31979 ft | 332 kts | 243° |
| 2026-05-07 17:13 | 37.14562 | -80.77773 | 31987 ft | 331 kts | 243° |
| 2026-05-07 17:13 | 37.12171 | -80.82718 | 31984 ft | 331 kts | 243° |
| 2026-05-07 17:14 | 37.09774 | -80.87684 | 31956 ft | 334 kts | 243° |
| 2026-05-07 17:14 | 37.07365 | -80.92671 | 31973 ft | 334 kts | 243° |
| 2026-05-07 17:15 | 37.04947 | -80.97648 | 31977 ft | 334 kts | 243° |
| 2026-05-07 17:15 | 37.02530 | -81.02618 | 31989 ft | 334 kts | 243° |
| 2026-05-07 17:16 | 37.00114 | -81.07577 | 32002 ft | 334 kts | 243° |
| 2026-05-07 17:16 | 36.97694 | -81.12540 | 32000 ft | 334 kts | 243° |
| 2026-05-07 17:17 | 36.95291 | -81.17457 | 32013 ft | 334 kts | 243° |
| 2026-05-07 17:17 | 36.92868 | -81.22406 | 32020 ft | 333 kts | 243° |
| 2026-05-07 17:18 | 36.90452 | -81.27350 | 31982 ft | 333 kts | 243° |
| 2026-05-07 17:18 | 36.88035 | -81.32289 | 31998 ft | 334 kts | 243° |
| 2026-05-07 17:19 | 36.85603 | -81.37229 | 32006 ft | 334 kts | 243° |
| 2026-05-07 17:19 | 36.83162 | -81.42182 | 32007 ft | 334 kts | 243° |
| 2026-05-07 17:20 | 36.80749 | -81.47095 | 32000 ft | 334 kts | 243° |
| 2026-05-07 17:20 | 36.78295 | -81.52069 | 31991 ft | 335 kts | 243° |
| 2026-05-07 17:21 | 36.75845 | -81.57013 | 31963 ft | 335 kts | 243° |
| 2026-05-07 17:21 | 36.73414 | -81.61922 | 31961 ft | 335 kts | 243° |
| 2026-05-07 17:22 | 36.70934 | -81.66840 | 32016 ft | 335 kts | 243° |
| 2026-05-07 17:22 | 36.68415 | -81.71730 | 31958 ft | 335 kts | 242° |
| 2026-05-07 17:23 | 36.65893 | -81.76623 | 31973 ft | 336 kts | 243° |
| 2026-05-07 17:23 | 36.63383 | -81.81523 | 31984 ft | 336 kts | 243° |
| 2026-05-07 17:24 | 36.60863 | -81.86422 | 31992 ft | 336 kts | 242° |
| 2026-05-07 17:24 | 36.58338 | -81.91318 | 31997 ft | 336 kts | 242° |
| 2026-05-07 17:25 | 36.55807 | -81.96210 | 31970 ft | 336 kts | 242° |
| 2026-05-07 17:25 | 36.53290 | -82.01070 | 31978 ft | 336 kts | 242° |
| 2026-05-07 17:26 | 36.50761 | -82.05956 | 31987 ft | 336 kts | 243° |
| 2026-05-07 17:26 | 36.48240 | -82.10831 | 31923 ft | 336 kts | 243° |
| 2026-05-07 17:27 | 36.45683 | -82.15765 | 31976 ft | 341 kts | 242° |
| 2026-05-07 17:27 | 36.43108 | -82.20713 | 31994 ft | 341 kts | 242° |
| 2026-05-07 17:28 | 36.40532 | -82.25654 | 32002 ft | 341 kts | 242° |
| 2026-05-07 17:28 | 36.37959 | -82.30599 | 32013 ft | 341 kts | 242° |
| 2026-05-07 17:29 | 36.35381 | -82.35527 | 32016 ft | 341 kts | 242° |
| 2026-05-07 17:29 | 36.32800 | -82.40458 | 32052 ft | 340 kts | 243° |
| 2026-05-07 17:30 | 36.30231 | -82.45358 | 32011 ft | 338 kts | 243° |
| 2026-05-07 17:30 | 36.27671 | -82.50242 | 31987 ft | 338 kts | 243° |
| 2026-05-07 17:31 | 36.25120 | -82.55106 | 31950 ft | 339 kts | 243° |
| 2026-05-07 17:31 | 36.22538 | -82.60013 | 31971 ft | 341 kts | 243° |
| 2026-05-07 17:32 | 36.19952 | -82.64936 | 31986 ft | 341 kts | 243° |
| 2026-05-07 17:32 | 36.17796 | -82.69032 | 31999 ft | 342 kts | 243° |
| 2026-05-07 17:33 | 36.14752 | -82.74790 | 32011 ft | 342 kts | 243° |
| 2026-05-07 17:33 | 36.12144 | -82.79721 | 32032 ft | 342 kts | 243° |
| 2026-05-07 17:34 | 36.09532 | -82.84641 | 32030 ft | 342 kts | 243° |
| 2026-05-07 17:34 | 36.06926 | -82.89553 | 32026 ft | 341 kts | 243° |
| 2026-05-07 17:35 | 36.04341 | -82.94437 | 32001 ft | 341 kts | 243° |
| 2026-05-07 17:35 | 36.01727 | -82.99345 | 31958 ft | 342 kts | 243° |
| 2026-05-07 17:36 | 35.99102 | -83.04265 | 31963 ft | 343 kts | 243° |
| 2026-05-07 17:36 | 35.96473 | -83.09189 | 31975 ft | 344 kts | 243° |
| 2026-05-07 17:37 | 35.93837 | -83.14122 | 31976 ft | 344 kts | 243° |
| 2026-05-07 17:37 | 35.91205 | -83.19059 | 32009 ft | 343 kts | 243° |
| 2026-05-07 17:38 | 35.88705 | -83.24069 | 32003 ft | 342 kts | 245° |
| 2026-05-07 17:38 | 35.86278 | -83.29080 | 32001 ft | 342 kts | 245° |
| 2026-05-07 17:39 | 35.83826 | -83.34105 | 31999 ft | 342 kts | 244° |
| 2026-05-07 17:39 | 35.81350 | -83.39113 | 32000 ft | 342 kts | 244° |
| 2026-05-07 17:40 | 35.78865 | -83.44114 | 32051 ft | 342 kts | 244° |
| 2026-05-07 17:40 | 35.76385 | -83.49120 | 32053 ft | 342 kts | 244° |
| 2026-05-07 17:41 | 35.73901 | -83.54120 | 32078 ft | 342 kts | 244° |
| 2026-05-07 17:41 | 35.71310 | -83.59049 | 32065 ft | 343 kts | 243° |
| 2026-05-07 17:42 | 35.68644 | -83.63915 | 32052 ft | 343 kts | 243° |
| 2026-05-07 17:42 | 35.66001 | -83.68740 | 32042 ft | 342 kts | 243° |
| 2026-05-07 17:43 | 35.63365 | -83.73594 | 32024 ft | 341 kts | 243° |
| 2026-05-07 17:43 | 35.60733 | -83.78456 | 32026 ft | 341 kts | 243° |
| 2026-05-07 17:44 | 35.58097 | -83.83321 | 31991 ft | 345 kts | 243° |
| 2026-05-07 17:44 | 35.55428 | -83.88233 | 32001 ft | 346 kts | 243° |
| 2026-05-07 17:45 | 35.52745 | -83.93149 | 32035 ft | 346 kts | 243° |
| 2026-05-07 17:45 | 35.50072 | -83.98049 | 32025 ft | 345 kts | 243° |
| 2026-05-07 17:46 | 35.47414 | -84.02910 | 32012 ft | 345 kts | 243° |
| 2026-05-07 17:46 | 35.44738 | -84.07801 | 32014 ft | 345 kts | 243° |
| 2026-05-07 17:47 | 35.42063 | -84.12687 | 32015 ft | 344 kts | 243° |
| 2026-05-07 17:47 | 35.39389 | -84.17562 | 32007 ft | 345 kts | 243° |
| 2026-05-07 17:48 | 35.36702 | -84.22435 | 32003 ft | 345 kts | 243° |
| 2026-05-07 17:48 | 35.34014 | -84.27323 | 31969 ft | 347 kts | 243° |
| 2026-05-07 17:49 | 35.31318 | -84.32229 | 31990 ft | 347 kts | 243° |
| 2026-05-07 17:49 | 35.28628 | -84.37109 | 31997 ft | 348 kts | 243° |
| 2026-05-07 17:50 | 35.25920 | -84.42013 | 32042 ft | 348 kts | 242° |
| 2026-05-07 17:50 | 35.23211 | -84.46906 | 32038 ft | 347 kts | 242° |
| 2026-05-07 17:51 | 35.20499 | -84.51795 | 32026 ft | 347 kts | 243° |
| 2026-05-07 17:51 | 35.17789 | -84.56686 | 32003 ft | 348 kts | 243° |
| 2026-05-07 17:52 | 35.15531 | -84.60757 | 31993 ft | 348 kts | 242° |
| 2026-05-07 17:52 | 35.12802 | -84.65655 | 31940 ft | 348 kts | 242° |
| 2026-05-07 17:53 | 35.10067 | -84.70553 | 31959 ft | 350 kts | 242° |
| 2026-05-07 17:53 | 35.07332 | -84.75468 | 31966 ft | 350 kts | 242° |
| 2026-05-07 17:54 | 35.04587 | -84.80384 | 31979 ft | 350 kts | 242° |
| 2026-05-07 17:54 | 35.01840 | -84.85296 | 31994 ft | 351 kts | 242° |
| 2026-05-07 17:55 | 34.99084 | -84.90215 | 32003 ft | 351 kts | 242° |
| 2026-05-07 17:55 | 34.96328 | -84.95129 | 32014 ft | 351 kts | 242° |
| 2026-05-07 17:56 | 34.93567 | -85.00045 | 32024 ft | 351 kts | 242° |
| 2026-05-07 17:56 | 34.90821 | -85.04928 | 32048 ft | 351 kts | 242° |
| 2026-05-07 17:57 | 34.88054 | -85.09834 | 31997 ft | 351 kts | 242° |
| 2026-05-07 17:57 | 34.85286 | -85.14751 | 32005 ft | 352 kts | 242° |
| 2026-05-07 17:58 | 34.82504 | -85.19671 | 32007 ft | 353 kts | 242° |
| 2026-05-07 17:58 | 34.79714 | -85.24594 | 32004 ft | 353 kts | 242° |
| 2026-05-07 17:59 | 34.76928 | -85.29517 | 31998 ft | 353 kts | 242° |
| 2026-05-07 17:59 | 34.74143 | -85.34436 | 31981 ft | 353 kts | 242° |
| 2026-05-07 18:00 | 34.71354 | -85.39346 | 31982 ft | 353 kts | 242° |
| 2026-05-07 18:00 | 34.68560 | -85.44248 | 31987 ft | 353 kts | 242° |
| 2026-05-07 18:01 | 34.65783 | -85.49115 | 31993 ft | 353 kts | 242° |
| 2026-05-07 18:01 | 34.62982 | -85.54020 | 31953 ft | 354 kts | 242° |
| 2026-05-07 18:02 | 34.58765 | -85.61400 | 31968 ft | 355 kts | 242° |
| 2026-05-07 18:03 | 34.55945 | -85.66320 | 31973 ft | 355 kts | 242° |
| 2026-05-07 18:03 | 34.53119 | -85.71243 | 31975 ft | 356 kts | 242° |
| 2026-05-07 18:04 | 34.50287 | -85.76163 | 31991 ft | 356 kts | 242° |
| 2026-05-07 18:04 | 34.47457 | -85.81087 | 31992 ft | 356 kts | 242° |
| 2026-05-07 18:05 | 34.44632 | -85.86008 | 31993 ft | 356 kts | 242° |
| 2026-05-07 18:05 | 34.41798 | -85.90923 | 32001 ft | 356 kts | 242° |
| 2026-05-07 18:06 | 34.38968 | -85.95816 | 31985 ft | 359 kts | 242° |
| 2026-05-07 18:06 | 34.36101 | -86.00779 | 31991 ft | 360 kts | 242° |
| 2026-05-07 18:07 | 34.33229 | -86.05745 | 31996 ft | 360 kts | 242° |
| 2026-05-07 18:07 | 34.30350 | -86.10706 | 32001 ft | 360 kts | 241° |
| 2026-05-07 18:08 | 34.27467 | -86.15659 | 32002 ft | 360 kts | 241° |
| 2026-05-07 18:08 | 34.24587 | -86.20616 | 32008 ft | 360 kts | 242° |
| 2026-05-07 18:09 | 34.21707 | -86.25570 | 32056 ft | 360 kts | 242° |
| 2026-05-07 18:09 | 34.18824 | -86.30511 | 32054 ft | 360 kts | 242° |
| 2026-05-07 18:10 | 34.15942 | -86.35454 | 31998 ft | 360 kts | 241° |
| 2026-05-07 18:10 | 34.13063 | -86.40382 | 32022 ft | 362 kts | 241° |
| 2026-05-07 18:11 | 34.10159 | -86.45336 | 32032 ft | 362 kts | 241° |
| 2026-05-07 18:11 | 34.07245 | -86.50294 | 32032 ft | 362 kts | 241° |
| 2026-05-07 18:12 | 34.04336 | -86.55254 | 32025 ft | 362 kts | 241° |
| 2026-05-07 18:12 | 34.01431 | -86.60215 | 32031 ft | 362 kts | 241° |
| 2026-05-07 18:13 | 33.98523 | -86.65170 | 32036 ft | 362 kts | 241° |
| 2026-05-07 18:13 | 33.95606 | -86.70123 | 32033 ft | 363 kts | 241° |
| 2026-05-07 18:14 | 33.92683 | -86.75080 | 32034 ft | 363 kts | 241° |
| 2026-05-07 18:14 | 33.89762 | -86.80036 | 31991 ft | 363 kts | 240° |
| 2026-05-07 18:15 | 33.86848 | -86.84965 | 32003 ft | 364 kts | 240° |
| 2026-05-07 18:15 | 33.83908 | -86.89932 | 32011 ft | 365 kts | 240° |
| 2026-05-07 18:16 | 33.80956 | -86.94908 | 32023 ft | 365 kts | 240° |
| 2026-05-07 18:16 | 33.78005 | -86.99877 | 32029 ft | 365 kts | 240° |
| 2026-05-07 18:17 | 33.75056 | -87.04843 | 32027 ft | 365 kts | 240° |
| 2026-05-07 18:17 | 33.72101 | -87.09807 | 32035 ft | 365 kts | 240° |
| 2026-05-07 18:18 | 33.69147 | -87.14766 | 32035 ft | 365 kts | 240° |
| 2026-05-07 18:18 | 33.66218 | -87.19695 | 32031 ft | 365 kts | 240° |
| 2026-05-07 18:19 | 33.63256 | -87.24653 | 31995 ft | 366 kts | 240° |
| 2026-05-07 18:19 | 33.60282 | -87.29628 | 32000 ft | 367 kts | 240° |
| 2026-05-07 18:20 | 33.57291 | -87.34613 | 32005 ft | 368 kts | 240° |
| 2026-05-07 18:20 | 33.54302 | -87.39592 | 32008 ft | 368 kts | 240° |
| 2026-05-07 18:21 | 33.51306 | -87.44582 | 32018 ft | 369 kts | 240° |
| 2026-05-07 18:21 | 33.48301 | -87.49576 | 32029 ft | 369 kts | 240° |
| 2026-05-07 18:22 | 33.45292 | -87.54567 | 32032 ft | 369 kts | 240° |
| 2026-05-07 18:22 | 33.42280 | -87.59558 | 32029 ft | 370 kts | 240° |
| 2026-05-07 18:23 | 33.39444 | -87.64611 | 32029 ft | 365 kts | 247° |
| 2026-05-07 18:23 | 33.37119 | -87.70009 | 32039 ft | 365 kts | 247° |
| 2026-05-07 18:24 | 33.34784 | -87.75405 | 32056 ft | 365 kts | 246° |
| 2026-05-07 18:24 | 33.32444 | -87.80788 | 32055 ft | 365 kts | 246° |
| 2026-05-07 18:25 | 33.30107 | -87.86171 | 32056 ft | 365 kts | 246° |
| 2026-05-07 18:25 | 33.27763 | -87.91551 | 32049 ft | 365 kts | 246° |
| 2026-05-07 18:26 | 33.25425 | -87.96919 | 32055 ft | 365 kts | 246° |
| 2026-05-07 18:26 | 33.23102 | -88.02261 | 32059 ft | 365 kts | 246° |
| 2026-05-07 18:27 | 33.20755 | -88.07631 | 32056 ft | 364 kts | 246° |
| 2026-05-07 18:27 | 33.18404 | -88.12992 | 32073 ft | 364 kts | 246° |
| 2026-05-07 18:28 | 33.16065 | -88.18336 | 32076 ft | 363 kts | 247° |
| 2026-05-07 18:28 | 33.13722 | -88.23679 | 32021 ft | 363 kts | 246° |
| 2026-05-07 18:29 | 33.11364 | -88.29033 | 32022 ft | 365 kts | 246° |
| 2026-05-07 18:29 | 33.08990 | -88.34411 | 32034 ft | 367 kts | 246° |
| 2026-05-07 18:30 | 33.06616 | -88.39805 | 32036 ft | 368 kts | 246° |
| 2026-05-07 18:30 | 33.04233 | -88.45201 | 32040 ft | 368 kts | 246° |
| 2026-05-07 18:31 | 33.01846 | -88.50602 | 32063 ft | 368 kts | 246° |
| 2026-05-07 18:31 | 32.99472 | -88.55967 | 32075 ft | 369 kts | 246° |
| 2026-05-07 18:32 | 32.97074 | -88.61366 | 32083 ft | 368 kts | 246° |
| 2026-05-07 18:32 | 32.94673 | -88.66762 | 32092 ft | 368 kts | 246° |
| 2026-05-07 18:33 | 32.92274 | -88.72156 | 32103 ft | 369 kts | 246° |
| 2026-05-07 18:33 | 32.89870 | -88.77554 | 32112 ft | 369 kts | 246° |
| 2026-05-07 18:34 | 32.87463 | -88.82943 | 32076 ft | 369 kts | 245° |
| 2026-05-07 18:34 | 32.85050 | -88.88347 | 32088 ft | 370 kts | 245° |
| 2026-05-07 18:35 | 32.82646 | -88.93721 | 32091 ft | 371 kts | 245° |
| 2026-05-07 18:35 | 32.80202 | -88.99175 | 32086 ft | 371 kts | 245° |
| 2026-05-07 18:36 | 32.77782 | -89.04552 | 32081 ft | 372 kts | 245° |
| 2026-05-07 18:36 | 32.75342 | -89.09974 | 32074 ft | 372 kts | 245° |
| 2026-05-07 18:37 | 32.72900 | -89.15397 | 32077 ft | 372 kts | 245° |
| 2026-05-07 18:37 | 32.70452 | -89.20822 | 32083 ft | 372 kts | 245° |
| 2026-05-07 18:38 | 32.68007 | -89.26239 | 32091 ft | 372 kts | 245° |
| 2026-05-07 18:38 | 32.65558 | -89.31659 | 32085 ft | 372 kts | 245° |
| 2026-05-07 18:39 | 32.63107 | -89.37075 | 32082 ft | 372 kts | 245° |
| 2026-05-07 18:39 | 32.60802 | -89.42567 | 32031 ft | 371 kts | 247° |
| 2026-05-07 18:40 | 32.58607 | -89.48112 | 32034 ft | 372 kts | 247° |
| 2026-05-07 18:40 | 32.56405 | -89.53630 | 32042 ft | 373 kts | 247° |
| 2026-05-07 18:41 | 32.54155 | -89.59172 | 32051 ft | 373 kts | 246° |
| 2026-05-07 18:41 | 32.51891 | -89.64706 | 32053 ft | 373 kts | 246° |
| 2026-05-07 18:42 | 32.49631 | -89.70240 | 32062 ft | 373 kts | 247° |
| 2026-05-07 18:42 | 32.47750 | -89.74846 | 32065 ft | 374 kts | 246° |
| 2026-05-07 18:43 | 32.45480 | -89.80383 | 32067 ft | 374 kts | 246° |
| 2026-05-07 18:43 | 32.43206 | -89.85919 | 32070 ft | 374 kts | 246° |
| 2026-05-07 18:44 | 32.40929 | -89.91457 | 32071 ft | 374 kts | 246° |
| 2026-05-07 18:44 | 32.38651 | -89.96990 | 32075 ft | 374 kts | 246° |
| 2026-05-07 18:45 | 32.36371 | -90.02521 | 32111 ft | 374 kts | 246° |
| 2026-05-07 18:45 | 32.34090 | -90.08062 | 32075 ft | 375 kts | 246° |
| 2026-05-07 18:46 | 32.31805 | -90.13600 | 32080 ft | 375 kts | 246° |
| 2026-05-07 18:46 | 32.29505 | -90.19145 | 32085 ft | 376 kts | 246° |
| 2026-05-07 18:47 | 32.27201 | -90.24687 | 32095 ft | 376 kts | 246° |
| 2026-05-07 18:47 | 32.24895 | -90.30231 | 32096 ft | 376 kts | 246° |
| 2026-05-07 18:48 | 32.22601 | -90.35742 | 32106 ft | 376 kts | 246° |
| 2026-05-07 18:48 | 32.20290 | -90.41283 | 32114 ft | 376 kts | 246° |
| 2026-05-07 18:49 | 32.17982 | -90.46825 | 32107 ft | 376 kts | 246° |
| 2026-05-07 18:49 | 32.15671 | -90.52361 | 32106 ft | 376 kts | 246° |
| 2026-05-07 18:50 | 32.13349 | -90.57888 | 32099 ft | 376 kts | 246° |
| 2026-05-07 18:50 | 32.11027 | -90.63417 | 32105 ft | 376 kts | 246° |
| 2026-05-07 18:51 | 32.08705 | -90.68942 | 32099 ft | 376 kts | 246° |
| 2026-05-07 18:51 | 32.06382 | -90.74476 | 32056 ft | 376 kts | 246° |
| 2026-05-07 18:52 | 32.04060 | -90.79997 | 32078 ft | 376 kts | 245° |
| 2026-05-07 18:52 | 32.01726 | -90.85524 | 32079 ft | 377 kts | 245° |
| 2026-05-07 18:53 | 31.99387 | -90.91053 | 32076 ft | 377 kts | 245° |
| 2026-05-07 18:53 | 31.97061 | -90.96540 | 32095 ft | 377 kts | 245° |
| 2026-05-07 18:54 | 31.94718 | -91.02062 | 32089 ft | 377 kts | 245° |
| 2026-05-07 18:54 | 31.92377 | -91.07580 | 32096 ft | 377 kts | 245° |
| 2026-05-07 18:55 | 31.90053 | -91.13104 | 32100 ft | 377 kts | 245° |
| 2026-05-07 18:55 | 31.87644 | -91.18607 | 32099 ft | 378 kts | 244° |
| 2026-05-07 18:56 | 31.85132 | -91.24044 | 32103 ft | 378 kts | 243° |
| 2026-05-07 18:56 | 31.82604 | -91.29429 | 32102 ft | 379 kts | 243° |
| 2026-05-07 18:57 | 31.80065 | -91.34856 | 32102 ft | 379 kts | 243° |
| 2026-05-07 18:57 | 31.77534 | -91.40285 | 32072 ft | 379 kts | 243° |
| 2026-05-07 18:58 | 31.75011 | -91.45735 | 32075 ft | 380 kts | 243° |
| 2026-05-07 18:58 | 31.72477 | -91.51179 | 32077 ft | 380 kts | 243° |
| 2026-05-07 18:59 | 31.69929 | -91.56630 | 32075 ft | 381 kts | 243° |
| 2026-05-07 18:59 | 31.67371 | -91.62083 | 32077 ft | 381 kts | 243° |
| 2026-05-07 19:00 | 31.64816 | -91.67534 | 32079 ft | 381 kts | 243° |
| 2026-05-07 19:00 | 31.62257 | -91.72992 | 32082 ft | 382 kts | 243° |
| 2026-05-07 19:01 | 31.59695 | -91.78447 | 32085 ft | 382 kts | 243° |
| 2026-05-07 19:01 | 31.57126 | -91.83906 | 32093 ft | 382 kts | 243° |
| 2026-05-07 19:02 | 31.54555 | -91.89369 | 32090 ft | 382 kts | 243° |
| 2026-05-07 19:02 | 31.51983 | -91.94821 | 32104 ft | 383 kts | 243° |
| 2026-05-07 19:03 | 31.49415 | -92.00251 | 32049 ft | 383 kts | 243° |
| 2026-05-07 19:03 | 31.46826 | -92.05716 | 32063 ft | 384 kts | 243° |
| 2026-05-07 19:04 | 31.44232 | -92.11183 | 32062 ft | 384 kts | 243° |
| 2026-05-07 19:04 | 31.41631 | -92.16649 | 32070 ft | 384 kts | 243° |
| 2026-05-07 19:05 | 31.39041 | -92.22030 | 32082 ft | 382 kts | 243° |
| 2026-05-07 19:05 | 31.36455 | -92.27490 | 32082 ft | 384 kts | 243° |
| 2026-05-07 19:06 | 31.33858 | -92.32960 | 32081 ft | 385 kts | 243° |
| 2026-05-07 19:06 | 31.29950 | -92.41165 | 32082 ft | 385 kts | 243° |
| 2026-05-07 19:07 | 31.27334 | -92.46629 | 32084 ft | 385 kts | 243° |
| 2026-05-07 19:07 | 31.24932 | -92.52214 | 32085 ft | 384 kts | 249° |
| 2026-05-07 19:08 | 31.22928 | -92.57964 | 32088 ft | 385 kts | 248° |
| 2026-05-07 19:08 | 31.20901 | -92.63747 | 32054 ft | 384 kts | 249° |
| 2026-05-07 19:09 | 31.18867 | -92.69521 | 32078 ft | 384 kts | 249° |
| 2026-05-07 19:09 | 31.16829 | -92.75293 | 32077 ft | 384 kts | 249° |
| 2026-05-07 19:10 | 31.14799 | -92.81069 | 32074 ft | 384 kts | 249° |
| 2026-05-07 19:10 | 31.12766 | -92.86834 | 32072 ft | 384 kts | 249° |
| 2026-05-07 19:11 | 31.10728 | -92.92608 | 32067 ft | 384 kts | 249° |
| 2026-05-07 19:11 | 31.08684 | -92.98369 | 32066 ft | 384 kts | 248° |
| 2026-05-07 19:12 | 31.06634 | -93.04130 | 32065 ft | 385 kts | 248° |
| 2026-05-07 19:12 | 31.04597 | -93.09861 | 32064 ft | 385 kts | 248° |
| 2026-05-07 19:13 | 31.02546 | -93.15637 | 32062 ft | 386 kts | 248° |
| 2026-05-07 19:13 | 31.00484 | -93.21409 | 32063 ft | 386 kts | 248° |
| 2026-05-07 19:14 | 30.98419 | -93.27182 | 32066 ft | 386 kts | 248° |
| 2026-05-07 19:14 | 30.96356 | -93.32949 | 32061 ft | 385 kts | 248° |
| 2026-05-07 19:15 | 30.94286 | -93.38713 | 32064 ft | 385 kts | 248° |
| 2026-05-07 19:15 | 30.92210 | -93.44480 | 32082 ft | 386 kts | 248° |
| 2026-05-07 19:16 | 30.90138 | -93.50241 | 32053 ft | 386 kts | 248° |
| 2026-05-07 19:16 | 30.88065 | -93.56006 | 32058 ft | 386 kts | 248° |
| 2026-05-07 19:17 | 30.86002 | -93.61736 | 32057 ft | 387 kts | 248° |
| 2026-05-07 19:17 | 30.83912 | -93.67502 | 32056 ft | 387 kts | 248° |
| 2026-05-07 19:18 | 30.81821 | -93.73271 | 31961 ft | 387 kts | 248° |
| 2026-05-07 19:18 | 30.80773 | -93.76156 | 31718 ft | 387 kts | 248° |
| 2026-05-07 19:18 | 30.79723 | -93.79044 | 31481 ft | 388 kts | 248° |
| 2026-05-07 19:19 | 30.78671 | -93.81938 | 31250 ft | 389 kts | 248° |
| 2026-05-07 19:19 | 30.77612 | -93.84848 | 31010 ft | 391 kts | 248° |
| 2026-05-07 19:19 | 30.76550 | -93.87769 | 30775 ft | 393 kts | 248° |
| 2026-05-07 19:19 | 30.75487 | -93.90695 | 30546 ft | 394 kts | 248° |
| 2026-05-07 19:20 | 30.74421 | -93.93631 | 30240 ft | 394 kts | 248° |
| 2026-05-07 19:20 | 30.73350 | -93.96575 | 29167 ft | 397 kts | 248° |
| 2026-05-07 19:20 | 30.72271 | -93.99542 | 28066 ft | 401 kts | 248° |
| 2026-05-07 19:20 | 30.71181 | -94.02538 | 26997 ft | 404 kts | 248° |
| 2026-05-07 19:21 | 30.70096 | -94.05522 | 26530 ft | 394 kts | 248° |
| 2026-05-07 19:21 | 30.69050 | -94.08387 | 26409 ft | 377 kts | 248° |
| 2026-05-07 19:21 | 30.68042 | -94.11137 | 26273 ft | 362 kts | 248° |
| 2026-05-07 19:21 | 30.67068 | -94.13792 | 25963 ft | 354 kts | 248° |
| 2026-05-07 19:22 | 30.66113 | -94.16394 | 25727 ft | 349 kts | 248° |
| 2026-05-07 19:22 | 30.65162 | -94.18987 | 25320 ft | 348 kts | 248° |
| 2026-05-07 19:22 | 30.64214 | -94.21572 | 24786 ft | 348 kts | 248° |
| 2026-05-07 19:22 | 30.63263 | -94.24154 | 24241 ft | 348 kts | 248° |
| 2026-05-07 19:23 | 30.62315 | -94.26725 | 23820 ft | 345 kts | 248° |
| 2026-05-07 19:23 | 30.61367 | -94.29297 | 23204 ft | 346 kts | 248° |
| 2026-05-07 19:23 | 30.60429 | -94.31843 | 22843 ft | 340 kts | 248° |
| 2026-05-07 19:23 | 30.59504 | -94.34362 | 22376 ft | 338 kts | 247° |
| 2026-05-07 19:24 | 30.58584 | -94.36862 | 21924 ft | 336 kts | 247° |
| 2026-05-07 19:24 | 30.57679 | -94.39318 | 21480 ft | 334 kts | 247° |
| 2026-05-07 19:24 | 30.56769 | -94.41790 | 21023 ft | 332 kts | 247° |
| 2026-05-07 19:24 | 30.55864 | -94.44248 | 20566 ft | 330 kts | 247° |
| 2026-05-07 19:25 | 30.54963 | -94.46685 | 20109 ft | 328 kts | 246° |
| 2026-05-07 19:25 | 30.54064 | -94.49108 | 19645 ft | 325 kts | 245° |
| 2026-05-07 19:25 | 30.52934 | -94.51369 | 19189 ft | 324 kts | 235° |
| 2026-05-07 19:25 | 30.51543 | -94.53420 | 18732 ft | 322 kts | 233° |
| 2026-05-07 19:26 | 30.50155 | -94.55453 | 18264 ft | 321 kts | 233° |
| 2026-05-07 19:26 | 30.48772 | -94.57477 | 17716 ft | 319 kts | 233° |
| 2026-05-07 19:26 | 30.47394 | -94.59495 | 17116 ft | 320 kts | 233° |
| 2026-05-07 19:26 | 30.46013 | -94.61520 | 16557 ft | 320 kts | 233° |
| 2026-05-07 19:27 | 30.44634 | -94.63542 | 16016 ft | 320 kts | 233° |
| 2026-05-07 19:27 | 30.43256 | -94.65561 | 15490 ft | 319 kts | 233° |
| 2026-05-07 19:27 | 30.41876 | -94.67579 | 14972 ft | 319 kts | 233° |
| 2026-05-07 19:27 | 30.40500 | -94.69591 | 14470 ft | 319 kts | 233° |
| 2026-05-07 19:28 | 30.39098 | -94.71578 | 13978 ft | 319 kts | 232° |
| 2026-05-07 19:28 | 30.37645 | -94.73527 | 13441 ft | 319 kts | 231° |
| 2026-05-07 19:28 | 30.36176 | -94.75450 | 12913 ft | 319 kts | 231° |
| 2026-05-07 19:28 | 30.34701 | -94.77366 | 12401 ft | 318 kts | 231° |
| 2026-05-07 19:29 | 30.33233 | -94.79270 | 12021 ft | 314 kts | 231° |
| 2026-05-07 19:29 | 30.31813 | -94.81118 | 11898 ft | 301 kts | 231° |
| 2026-05-07 19:29 | 30.30449 | -94.82902 | 11757 ft | 291 kts | 231° |
| 2026-05-07 19:29 | 30.29143 | -94.84618 | 11499 ft | 286 kts | 231° |
| 2026-05-07 19:30 | 30.27842 | -94.86350 | 11170 ft | 285 kts | 232° |
| 2026-05-07 19:30 | 30.26573 | -94.88096 | 10922 ft | 280 kts | 232° |
| 2026-05-07 19:30 | 30.25331 | -94.89834 | 10823 ft | 280 kts | 233° |
| 2026-05-07 19:30 | 30.24093 | -94.91570 | 10735 ft | 280 kts | 233° |
| 2026-05-07 19:31 | 30.22851 | -94.93307 | 10647 ft | 280 kts | 232° |
| 2026-05-07 19:31 | 30.21607 | -94.95040 | 10583 ft | 280 kts | 232° |
| 2026-05-07 19:31 | 30.20780 | -94.96190 | 10526 ft | 281 kts | 232° |
| 2026-05-07 19:31 | 30.19105 | -94.98516 | 10412 ft | 282 kts | 232° |
| 2026-05-07 19:32 | 30.18272 | -94.99671 | 10363 ft | 282 kts | 232° |
| 2026-05-07 19:32 | 30.17014 | -95.01410 | 10287 ft | 282 kts | 232° |
| 2026-05-07 19:32 | 30.15754 | -95.03146 | 10210 ft | 282 kts | 232° |
| 2026-05-07 19:32 | 30.14493 | -95.04884 | 10129 ft | 282 kts | 232° |
| 2026-05-07 19:33 | 30.13281 | -95.06644 | 10023 ft | 275 kts | 239° |
| 2026-05-07 19:33 | 30.12502 | -95.08610 | 9826 ft | 267 kts | 255° |
| 2026-05-07 19:33 | 30.12133 | -95.10710 | 9548 ft | 266 kts | 261° |
| 2026-05-07 19:33 | 30.11806 | -95.12810 | 9260 ft | 265 kts | 261° |
| 2026-05-07 19:34 | 30.11481 | -95.14899 | 8972 ft | 265 kts | 260° |
| 2026-05-07 19:34 | 30.11154 | -95.16988 | 8682 ft | 264 kts | 260° |
| 2026-05-07 19:34 | 30.10826 | -95.19081 | 8395 ft | 265 kts | 260° |
| 2026-05-07 19:34 | 30.10493 | -95.21176 | 8104 ft | 265 kts | 261° |
| 2026-05-07 19:35 | 30.10159 | -95.23276 | 7812 ft | 266 kts | 260° |
| 2026-05-07 19:35 | 30.09827 | -95.25373 | 7527 ft | 266 kts | 261° |
| 2026-05-07 19:35 | 30.09491 | -95.27484 | 7232 ft | 268 kts | 260° |
| 2026-05-07 19:35 | 30.09242 | -95.29621 | 6950 ft | 269 kts | 270° |
| 2026-05-07 19:36 | 30.09255 | -95.31770 | 6845 ft | 267 kts | 271° |
| 2026-05-07 19:36 | 30.09258 | -95.33917 | 6729 ft | 268 kts | 270° |
| 2026-05-07 19:36 | 30.09255 | -95.36070 | 6601 ft | 269 kts | 270° |
| 2026-05-07 19:36 | 30.09258 | -95.38221 | 6431 ft | 267 kts | 270° |
| 2026-05-07 19:37 | 30.09272 | -95.40347 | 6240 ft | 261 kts | 271° |
| 2026-05-07 19:37 | 30.09277 | -95.42406 | 6147 ft | 251 kts | 270° |
| 2026-05-07 19:37 | 30.09268 | -95.44380 | 6060 ft | 240 kts | 270° |
| 2026-05-07 19:37 | 30.09248 | -95.46285 | 5988 ft | 236 kts | 269° |
| 2026-05-07 19:38 | 30.09219 | -95.48183 | 5883 ft | 236 kts | 269° |
| 2026-05-07 19:38 | 30.09186 | -95.50079 | 5677 ft | 236 kts | 269° |
| 2026-05-07 19:38 | 30.09151 | -95.51944 | 5436 ft | 234 kts | 269° |
| 2026-05-07 19:38 | 30.09115 | -95.53823 | 5196 ft | 233 kts | 269° |
| 2026-05-07 19:39 | 30.09078 | -95.55693 | 4960 ft | 232 kts | 270° |
| 2026-05-07 19:39 | 30.09039 | -95.57552 | 4717 ft | 231 kts | 269° |
| 2026-05-07 19:39 | 30.08981 | -95.59404 | 4471 ft | 231 kts | 264° |
| 2026-05-07 19:39 | 30.08456 | -95.61136 | 4217 ft | 231 kts | 236° |
| 2026-05-07 19:40 | 30.07282 | -95.62392 | 3991 ft | 233 kts | 207° |
| 2026-05-07 19:40 | 30.05738 | -95.62915 | 3775 ft | 232 kts | 184° |
| 2026-05-07 19:40 | 30.04152 | -95.62786 | 3685 ft | 226 kts | 164° |
| 2026-05-07 19:40 | 30.02746 | -95.62069 | 3741 ft | 219 kts | 144° |
| 2026-05-07 19:41 | 30.01633 | -95.60885 | 3723 ft | 217 kts | 126° |
| 2026-05-07 19:41 | 30.00917 | -95.59369 | 3712 ft | 213 kts | 107° |
| 2026-05-07 19:41 | 30.00671 | -95.57733 | 3665 ft | 205 kts | 89° |
| 2026-05-07 19:41 | 30.00673 | -95.56106 | 3470 ft | 201 kts | 88° |
| 2026-05-07 19:42 | 30.00680 | -95.54502 | 3235 ft | 198 kts | 88° |
| 2026-05-07 19:42 | 30.00685 | -95.52916 | 2976 ft | 197 kts | 88° |
| 2026-05-07 19:42 | 30.00689 | -95.51345 | 2726 ft | 194 kts | 87° |
| 2026-05-07 19:42 | 30.00692 | -95.49817 | 2468 ft | 186 kts | 88° |
| 2026-05-07 19:43 | 30.00695 | -95.48371 | 2227 ft | 174 kts | 87° |
| 2026-05-07 19:43 | 30.00698 | -95.47004 | 2005 ft | 166 kts | 86° |
| 2026-05-07 19:43 | 30.00699 | -95.45746 | 1804 ft | 148 kts | 86° |
| 2026-05-07 19:43 | 30.00701 | -95.44617 | 1604 ft | 138 kts | 86° |
| 2026-05-07 19:44 | 30.00704 | -95.43516 | 1417 ft | 135 kts | 86° |
| 2026-05-07 19:44 | 30.00706 | -95.42436 | 1236 ft | 136 kts | 85° |
| 2026-05-07 19:44 | 30.00708 | -95.41319 | 1062 ft | 146 kts | 83° |
| 2026-05-07 19:44 | 30.00711 | -95.40132 | 863 ft | 149 kts | 85° |
| 2026-05-07 19:45 | 30.00712 | -95.38926 | 671 ft | 150 kts | 84° |
| 2026-05-07 19:45 | 30.00713 | -95.37721 | 471 ft | 150 kts | 84° |
| 2026-05-07 19:45 | 30.00714 | -95.36535 | 262 ft | 143 kts | 85° |
| 2026-05-07 19:45 | 30.00717 | -95.35431 | 110 ft | 127 kts | 86° |
| 2026-05-07 19:46 | 30.00721 | -95.34629 | 107 ft | 80 kts | 90° |
| 2026-05-07 19:46 | 30.00734 | -95.34077 | 107 ft | 39 kts | 87° |
| 2026-05-07 19:46 | 30.00728 | -95.33766 | 106 ft | 39 kts | 92° |
| 2026-05-07 19:46 | 30.00698 | -95.33531 | 105 ft | 17 kts | 122° |
| 2026-05-07 19:47 | 30.00626 | -95.33409 | 106 ft | 20 kts | 123° |
| 2026-05-07 19:47 | 30.00552 | -95.33268 | 107 ft | 22 kts | 118° |
| 2026-05-07 19:47 | 30.00483 | -95.33104 | 107 ft | 24 kts | 115° |
| 2026-05-07 19:47 | 30.00385 | -95.32943 | 106 ft | 26 kts | 134° |
| 2026-05-07 19:48 | 30.00264 | -95.32779 | 106 ft | 28 kts | 129° |
| 2026-05-07 19:48 | 30.00134 | -95.32606 | 106 ft | 30 kts | 132° |
| 2026-05-07 19:48 | 30.00071 | -95.32539 | 107 ft | 10 kts | 153° |
| 2026-05-07 19:48 | 29.99996 | -95.32543 | 107 ft | 12 kts | 182° |
| 2026-05-07 19:49 | 29.99907 | -95.32540 | 107 ft | 14 kts | 180° |
| 2026-05-07 19:49 | 29.99806 | -95.32541 | 107 ft | 15 kts | 178° |
| 2026-05-07 19:49 | 29.99693 | -95.32541 | 107 ft | 17 kts | 181° |
| 2026-05-07 19:49 | 29.99566 | -95.32538 | 107 ft | 19 kts | 175° |
| 2026-05-07 19:50 | 29.99427 | -95.32540 | 106 ft | 21 kts | 184° |
| 2026-05-07 19:50 | 29.99273 | -95.32534 | 106 ft | 23 kts | 182° |
| 2026-05-07 19:50 | 29.99171 | -95.32540 | 107 ft | 10 kts | 180° |
| 2026-05-07 19:50 | 29.99097 | -95.32551 | 107 ft | 11 kts | 213° |
| 2026-05-07 19:51 | 29.99091 | -95.32641 | 107 ft | 13 kts | 269° |
| 2026-05-07 19:51 | 29.99078 | -95.32680 | 107 ft | 3 kts | 257° |
| 2026-05-07 19:51 | 29.99089 | -95.32714 | 106 ft | 6 kts | 288° |
| 2026-05-07 19:51 | 29.99092 | -95.32781 | 107 ft | 10 kts | 269° |
| 2026-05-07 19:52 | 29.99090 | -95.32879 | 107 ft | 14 kts | 272° |
| 2026-05-07 19:52 | 29.99084 | -95.33002 | 106 ft | 16 kts | 238° |
| 2026-05-07 19:52 | 29.98979 | -95.33026 | 107 ft | 17 kts | 180° |
| 2026-05-07 19:52 | 29.98921 | -95.33102 | 107 ft | 11 kts | 274° |
| 2026-05-07 19:53 | 29.98920 | -95.33201 | 107 ft | 13 kts | 264° |
| 2026-05-07 19:53 | 29.98873 | -95.33251 | 107 ft | 2 kts | 174° |
| 2026-05-07 19:53 | 29.98872 | -95.33251 | 107 ft | 0 kts | 167° |
| 2026-05-07 19:53 | 29.98864 | -95.33246 | 107 ft | 2 kts | 159° |
| 2026-05-07 19:54 | 29.98841 | -95.33246 | 107 ft | 5 kts | 181° |
| 2026-05-07 19:54 | 29.98827 | -95.33246 | 107 ft | 0 kts | 181° |